Lemoyne, Ohio
Current Conditions -  °F | °C
As of 9:53 PM on Friday 21 Nov 2014 (Local Time) from KTDZ Reporting Station
Clear Clear  
Wind Chill:   Ceiling: Unl
Heat Index: 18°   Visibility: 10mi
Dew Point: 10°   Wind: 8mph
Humidity: 71%   Direction: 190°S
Pressure: 30.4"   Gusts: NA
Location:  41.5°N, 83.47°W
Report Text: KTDZ 220253Z AUTO 19007KT 10SM CLR M08/M12 A3040 RMK AO2 SLP305 T10781122 56019 TSNO
Loading
Personal Weather Stations






























Interactive Weather Map New forecast layout! Learn more

10-Day Weather Forecast

Advertisements
Track Severe Weather on mobile